Time;durP1;ratioP1;P1;durP2;ratioP2;P2;SDS_P1;SDS_P2;PMS_P1;PMS_P2;Temp;Humidity;BMP_temperature;BMP_pressure;BME280_temperature;BME280_humidity;BME280_pressure;Samples;Min_cycle;Max_cycle;Signal;HPM_P1;HPM_P2
2023/08/27 00:01:48;;;;;;;3.20;2.90;;;;;;;13.33;100.00;101252.75;4921313;29;20114;-66
2023/08/27 00:04:14;;;;;;;10.13;3.93;;;;;;;13.28;100.00;101245.19;4938411;29;20051;-66
2023/08/27 00:06:39;;;;;;;4.40;3.53;;;;;;;13.32;100.00;101253.75;4938286;29;20102;-64
2023/08/27 00:09:05;;;;;;;3.87;3.47;;;;;;;13.32;100.00;101259.94;4938626;29;20413;-63
2023/08/27 00:11:30;;;;;;;4.00;3.20;;;;;;;13.32;100.00;101253.75;4938437;29;20036;-66
2023/08/27 00:13:56;;;;;;;3.77;3.37;;;;;;;12.98;100.00;101200.38;4938408;29;20028;-64
2023/08/27 00:16:22;;;;;;;3.50;2.83;;;;;;;13.06;100.00;101216.44;4938214;29;20057;-63
2023/08/27 00:18:47;;;;;;;5.20;3.37;;;;;;;13.23;100.00;101244.88;4938188;29;20042;-65
2023/08/27 00:21:13;;;;;;;3.50;3.13;;;;;;;13.20;100.00;101239.88;4937797;29;20090;-65
2023/08/27 00:23:40;;;;;;;5.33;3.83;;;;;;;13.10;100.00;101225.81;4937850;29;20040;-64
2023/08/27 00:26:05;;;;;;;6.57;3.37;;;;;;;13.15;100.00;101227.97;4938077;29;20038;-63
2023/08/27 00:28:31;;;;;;;4.10;3.63;;;;;;;13.16;100.00;101221.63;4937817;29;20052;-63
2023/08/27 00:31:03;;;;;;;7.07;5.33;;;;;;;13.09;100.00;101205.41;4938269;29;20055;-63
2023/08/27 00:33:30;;;;;;;5.83;4.40;;;;;;;13.16;100.00;101216.28;4937769;29;20039;-65
2023/08/27 00:35:56;;;;;;;3.67;3.23;;;;;;;13.17;100.00;101205.44;4937617;29;20051;-65
2023/08/27 00:38:22;;;;;;;5.30;3.23;;;;;;;13.09;100.00;101191.22;4937583;29;20387;-64
2023/08/27 00:40:47;;;;;;;4.03;3.63;;;;;;;13.02;100.00;101180.38;4937740;29;20027;-65
2023/08/27 00:43:13;;;;;;;8.03;3.87;;;;;;;13.06;100.00;101183.53;4937523;29;20114;-62
2023/08/27 00:45:39;;;;;;;3.80;3.33;;;;;;;13.13;100.00;101189.88;4953352;29;20038;-64
2023/08/27 00:48:05;;;;;;;3.40;3.10;;;;;;;13.12;100.00;101189.03;4937474;29;20178;-69
2023/08/27 00:50:31;;;;;;;7.40;3.53;;;;;;;13.11;100.00;101176.66;4937276;29;20039;-61
2023/08/27 00:52:57;;;;;;;3.37;3.07;;;;;;;13.08;98.53;101176.19;4937806;29;20031;-64
2023/08/27 00:55:22;;;;;;;3.73;3.23;;;;;;;13.13;98.12;101181.84;4938949;29;20031;-63
2023/08/27 00:57:49;;;;;;;5.30;3.83;;;;;;;13.17;98.00;101194.75;4937479;29;20023;-62
2023/08/27 01:00:15;;;;;;;4.43;2.93;;;;;;;13.07;97.64;101183.34;4937747;29;20024;-64
2023/08/27 01:02:42;;;;;;;4.70;3.10;;;;;;;13.09;97.66;101200.06;4937047;29;20392;-63
2023/08/27 01:05:08;;;;;;;3.87;2.93;;;;;;;13.06;97.73;101195.06;4936644;29;20031;-65
2023/08/27 01:07:48;;;;;;;4.50;3.60;;;;;;;13.16;99.18;101211.75;4938661;29;20090;-65
2023/08/27 01:10:26;;;;;;;4.27;3.50;;;;;;;13.02;99.11;101191.88;4953787;29;20031;-63
2023/08/27 01:13:02;;;;;;;3.42;3.10;;;;;;;13.05;98.46;101205.94;4937865;29;20067;-64
2023/08/27 01:15:28;;;;;;;5.10;3.57;;;;;;;13.08;98.43;101218.97;4920052;29;20043;-66
2023/08/27 01:17:55;;;;;;;3.63;2.93;;;;;;;13.07;98.71;101219.97;4936945;29;20380;-65
2023/08/27 01:20:22;;;;;;;3.60;3.27;;;;;;;13.00;99.40;101206.41;4937055;29;20101;-66
2023/08/27 01:22:47;;;;;;;5.00;3.03;;;;;;;12.98;99.32;101213.75;4936864;29;20023;-63
2023/08/27 01:25:18;;;;;;;3.50;3.20;;;;;;;12.97;99.58;101220.09;4936714;29;20037;-64
2023/08/27 01:28:11;;;;;;;4.30;3.73;;;;;;;12.96;99.93;101235.31;4936590;29;20110;-65
2023/08/27 01:30:43;;;;;;;6.03;3.57;;;;;;;12.91;100.00;101242.16;4931842;29;20384;-64
2023/08/27 01:33:15;;;;;;;6.90;4.67;;;;;;;12.87;100.00;101236.31;4936905;29;20036;-66
2023/08/27 01:35:42;;;;;;;10.80;4.63;;;;;;;12.79;100.00;101219.44;4936688;29;20467;-64
2023/08/27 01:38:08;;;;;;;6.53;4.70;;;;;;;11.84;100.00;101080.06;4936653;29;20035;-61
2023/08/27 01:40:33;;;;;;;7.23;4.70;;;;;;;12.59;100.00;101210.91;4936362;29;20036;-63
2023/08/27 01:42:58;;;;;;;5.00;4.43;;;;;;;12.64;100.00;101225.44;4936675;29;20551;-65
2023/08/27 01:45:24;;;;;;;6.10;4.27;;;;;;;12.66;100.00;101231.44;4936521;29;20042;-66
2023/08/27 01:47:49;;;;;;;7.10;3.57;;;;;;;12.58;100.00;101214.56;4936494;29;20035;-65
2023/08/27 01:50:15;;;;;;;4.23;3.77;;;;;;;12.63;100.00;101220.25;4936405;29;20139;-66
2023/08/27 01:52:40;;;;;;;5.07;3.97;;;;;;;12.53;100.00;101209.72;4936357;29;20028;-64
2023/08/27 01:55:07;;;;;;;4.37;3.43;;;;;;;12.45;100.00;101196.34;4936167;29;20051;-64
2023/08/27 01:57:33;;;;;;;4.77;3.53;;;;;;;12.53;100.00;101215.06;4936345;29;20031;-63
2023/08/27 01:59:59;;;;;;;4.83;4.30;;;;;;;12.46;100.00;101207.88;4936315;29;20039;-64
2023/08/27 02:02:24;;;;;;;6.63;4.10;;;;;;;12.51;100.00;101224.25;4936307;29;20024;-64
2023/08/27 02:04:50;;;;;;;5.33;3.20;;;;;;;12.53;100.00;101224.91;4936003;29;20380;-62
2023/08/27 02:07:17;;;;;;;7.07;3.63;;;;;;;12.47;100.00;101221.06;4935863;29;20024;-64
2023/08/27 02:09:42;;;;;;;5.53;3.87;;;;;;;12.38;100.00;101224.69;4935988;29;20484;-62
2023/08/27 02:12:08;;;;;;;5.13;4.27;;;;;;;12.45;100.00;101235.59;4936016;29;20062;-65
2023/08/27 02:14:33;;;;;;;6.03;3.40;;;;;;;12.37;100.00;101231.03;4936216;29;20032;-65
2023/08/27 02:17:19;;;;;;;3.43;2.93;;;;;;;12.25;100.00;101213.66;4921708;29;20095;-65
2023/08/27 02:19:44;;;;;;;5.30;4.70;;;;;;;12.14;100.00;101197.91;4935672;29;20428;-65
2023/08/27 02:22:10;;;;;;;5.23;3.73;;;;;;;12.39;100.00;101242.41;4935825;29;20024;-64
2023/08/27 02:24:35;;;;;;;4.43;3.20;;;;;;;12.36;100.00;101235.56;4935498;29;20114;-68
2023/08/27 02:27:01;;;;;;;4.47;3.10;;;;;;;12.23;100.00;101213.81;4918680;29;20028;-67
2023/08/27 02:29:26;;;;;;;4.93;3.30;;;;;;;11.64;100.00;101111.50;4935594;29;20401;-65
2023/08/27 02:31:52;;;;;;;5.10;3.67;;;;;;;12.34;100.00;101228.69;4918610;29;20040;-64
2023/08/27 02:34:19;;;;;;;4.47;3.63;;;;;;;12.33;100.00;101227.03;4950689;29;20472;-62
2023/08/27 02:36:44;;;;;;;5.63;3.70;;;;;;;12.26;100.00;101208.16;4935473;29;20095;-66
2023/08/27 02:39:11;;;;;;;4.07;3.67;;;;;;;12.24;100.00;101203.97;4935549;29;20467;-63
2023/08/27 02:41:37;;;;;;;4.00;3.37;;;;;;;12.13;100.00;101185.56;4935722;29;20456;-63
2023/08/27 02:44:02;;;;;;;3.73;3.43;;;;;;;12.23;100.00;101207.66;4935439;29;20047;-63
2023/08/27 02:46:28;;;;;;;4.87;4.27;;;;;;;12.18;100.00;101189.44;4935451;29;20032;-64
2023/08/27 02:48:53;;;;;;;4.97;3.93;;;;;;;12.15;100.00;101183.59;4936008;29;20035;-65
2023/08/27 02:51:19;;;;;;;6.03;3.80;;;;;;;12.20;100.00;101192.78;4935493;29;20133;-63
2023/08/27 02:53:44;;;;;;;5.47;3.17;;;;;;;12.17;100.00;101193.13;4918267;29;20027;-62
2023/08/27 02:56:11;;;;;;;5.63;3.43;;;;;;;12.12;100.00;101181.22;4935386;29;20412;-65
2023/08/27 02:58:36;;;;;;;6.30;3.80;;;;;;;12.18;100.00;101183.28;4935187;29;20024;-64
2023/08/27 03:01:02;;;;;;;5.27;4.70;;;;;;;12.22;100.00;101195.28;4918174;29;20062;-65
2023/08/27 03:03:28;;;;;;;8.33;4.03;;;;;;;12.16;100.00;101183.44;4935350;29;20039;-65
2023/08/27 03:05:54;;;;;;;4.43;3.60;;;;;;;12.03;100.00;101159.84;4935555;29;20543;-63
2023/08/27 03:08:19;;;;;;;5.20;3.63;;;;;;;12.20;100.00;101186.63;4935203;29;20118;-64
2023/08/27 03:10:45;;;;;;;5.30;3.50;;;;;;;12.25;100.00;101187.78;4935334;29;20027;-63
2023/08/27 03:13:11;;;;;;;5.23;3.83;;;;;;;12.23;100.00;101180.94;4935070;29;20051;-65
2023/08/27 03:15:36;;;;;;;5.17;3.57;;;;;;;12.26;100.00;101176.09;4935196;29;20340;-62
2023/08/27 03:18:03;;;;;;;7.83;3.67;;;;;;;12.23;100.00;101181.78;4917837;29;20028;-66
2023/08/27 03:20:29;;;;;;;4.80;3.73;;;;;;;12.28;100.00;101178.63;4917850;29;20135;-64
2023/08/27 03:22:55;;;;;;;5.40;3.60;;;;;;;12.30;100.00;101189.97;4917923;29;20020;-64
2023/08/27 03:25:20;;;;;;;6.67;3.97;;;;;;;12.29;100.00;101175.78;4934915;29;20035;-65
2023/08/27 03:27:47;;;;;;;6.13;4.20;;;;;;;12.21;100.00;101161.59;4934887;29;20407;-66
2023/08/27 03:30:13;;;;;;;9.23;4.10;;;;;;;12.33;100.00;101181.63;4934206;29;20040;-67
2023/08/27 03:32:38;;;;;;;6.67;3.40;;;;;;;12.38;100.00;101173.94;4934777;29;20090;-63
2023/08/27 03:35:04;;;;;;;4.43;3.50;;;;;;;12.36;100.00;101165.28;4935028;29;20114;-67
2023/08/27 03:37:30;;;;;;;3.97;3.10;;;;;;;12.04;100.00;101110.81;4935026;29;20096;-67
2023/08/27 03:39:56;;;;;;;6.10;3.47;;;;;;;12.49;100.00;101170.16;4934761;29;20024;-65
2023/08/27 03:42:21;;;;;;;4.67;3.47;;;;;;;12.54;100.00;101175.81;4934837;29;20331;-65
2023/08/27 03:44:47;;;;;;;5.43;3.50;;;;;;;12.53;100.00;101177.66;4917561;29;20028;-64
2023/08/27 03:47:12;;;;;;;5.13;3.47;;;;;;;12.45;100.00;101156.28;4934648;29;20122;-63
2023/08/27 03:49:38;;;;;;;5.23;3.80;;;;;;;12.56;100.00;101166.66;4934501;29;20072;-66
2023/08/27 03:52:04;;;;;;;4.97;3.43;;;;;;;12.45;100.00;101137.59;4934732;29;20028;-65
2023/08/27 03:54:30;;;;;;;3.50;2.67;;;;;;;12.51;100.00;101142.25;4934533;29;20032;-66
2023/08/27 03:56:56;;;;;;;6.37;3.70;;;;;;;12.63;100.00;101162.31;4934690;29;20424;-64
2023/08/27 03:59:21;;;;;;;5.93;3.17;;;;;;;12.55;98.59;101146.28;4934531;29;20040;-64
2023/08/27 04:01:47;;;;;;;5.77;3.60;;;;;;;12.65;98.21;101149.59;4934816;29;20034;-62
2023/08/27 04:04:12;;;;;;;5.97;3.13;;;;;;;12.75;96.92;101165.50;4935216;29;20415;-64
2023/08/27 04:06:38;;;;;;;6.17;3.73;;;;;;;12.77;97.53;101162.66;4917959;29;20035;-65
2023/08/27 04:09:04;;;;;;;6.37;3.50;;;;;;;12.69;96.86;101140.25;4934635;29;20039;-63
2023/08/27 04:11:30;;;;;;;5.07;3.60;;;;;;;12.73;95.80;101139.94;4934548;29;20032;-65
2023/08/27 04:13:56;;;;;;;5.33;3.47;;;;;;;12.85;94.99;101147.44;4934484;29;20034;-64
2023/08/27 04:16:21;;;;;;;4.47;3.57;;;;;;;12.73;94.68;101134.59;4934472;29;20040;-66
2023/08/27 04:18:47;;;;;;;6.07;4.37;;;;;;;12.55;94.75;101106.19;4917349;29;20079;-66
2023/08/27 04:21:12;;;;;;;4.23;3.20;;;;;;;12.85;93.72;101152.78;4934526;29;20027;-65
2023/08/27 04:23:37;;;;;;;6.73;3.77;;;;;;;12.85;93.34;101147.44;4917383;29;20047;-65
2023/08/27 04:26:03;;;;;;;6.00;3.73;;;;;;;12.91;93.42;101153.94;4934540;29;20062;-66
2023/08/27 04:28:31;;;;;;;5.00;3.30;;;;;;;12.84;94.03;101150.28;4934635;29;20537;-65
2023/08/27 04:30:57;;;;;;;5.05;3.50;;;;;;;12.78;93.63;101133.09;4918932;29;20051;-66
2023/08/27 04:33:22;;;;;;;4.67;3.20;;;;;;;12.88;93.52;101144.44;4918266;29;20143;-66
2023/08/27 04:35:49;;;;;;;4.63;3.27;;;;;;;12.82;93.64;101142.44;4937271;29;20369;-64
2023/08/27 04:38:15;;;;;;;5.13;3.13;;;;;;;12.95;93.88;101160.63;4937718;29;20031;-63
2023/08/27 04:40:41;;;;;;;5.03;3.30;;;;;;;12.85;94.27;101149.28;4939327;29;20031;-64
2023/08/27 04:43:06;;;;;;;4.00;3.57;;;;;;;12.95;94.44;101155.28;4938334;29;20444;-65
2023/08/27 04:45:32;;;;;;;6.20;3.77;;;;;;;12.97;94.49;101163.97;4920752;29;20475;-63
2023/08/27 04:47:57;;;;;;;8.10;3.80;;;;;;;13.02;95.80;101172.34;4920873;29;20039;-62
2023/08/27 04:50:23;;;;;;;5.47;3.73;;;;;;;13.00;95.24;101168.97;4937776;29;20027;-65
2023/08/27 04:52:48;;;;;;;3.93;3.03;;;;;;;12.90;95.42;101146.94;4937650;29;20027;-63
2023/08/27 04:55:14;;;;;;;6.60;3.20;;;;;;;13.03;96.42;101168.66;4952365;29;20093;-65
2023/08/27 04:57:39;;;;;;;4.17;3.47;;;;;;;13.00;95.70;101163.63;4920332;29;20032;-67
2023/08/27 05:00:13;;;;;;;4.83;3.97;;;;;;;13.11;96.41;101181.19;4937361;29;20020;-67
2023/08/27 05:02:39;;;;;;;4.37;3.50;;;;;;;13.12;95.76;101172.16;4937300;29;20023;-66
2023/08/27 05:05:05;;;;;;;7.87;3.53;;;;;;;12.94;95.92;101130.38;4938030;29;20032;-66
2023/08/27 05:07:31;;;;;;;5.40;3.80;;;;;;;13.23;95.14;101169.97;4937924;29;20250;-66
2023/08/27 05:09:56;;;;;;;5.60;3.67;;;;;;;13.16;94.42;101147.56;4937306;29;20123;-67
2023/08/27 05:12:22;;;;;;;16.63;4.07;;;;;;;13.29;93.90;101157.75;4937098;29;20042;-64
2023/08/27 05:14:47;;;;;;;5.00;3.67;;;;;;;13.29;93.28;101150.56;4936946;29;20033;-65
2023/08/27 05:17:12;;;;;;;6.17;3.70;;;;;;;13.37;93.45;101148.91;4936742;29;20027;-65
2023/08/27 05:19:38;;;;;;;6.57;3.83;;;;;;;13.43;93.66;101148.22;4936943;29;20055;-65
2023/08/27 05:22:04;;;;;;;6.00;3.70;;;;;;;13.46;93.48;101147.88;4936937;29;20059;-66
2023/08/27 05:24:29;;;;;;;4.10;3.40;;;;;;;13.53;93.09;101138.97;4936958;29;20047;-66
2023/08/27 05:26:55;;;;;;;4.97;3.80;;;;;;;13.67;91.87;101156.16;4936746;29;20036;-63
2023/08/27 05:29:20;;;;;;;6.37;2.87;;;;;;;13.78;92.86;101146.91;4936683;29;20079;-64
2023/08/27 05:31:46;;;;;;;4.27;3.63;;;;;;;13.86;92.91;101133.47;4936860;29;20450;-65
2023/08/27 05:34:11;;;;;;;4.30;3.03;;;;;;;13.91;91.49;101131.97;4919554;29;20394;-64
2023/08/27 05:36:37;;;;;;;4.40;2.77;;;;;;;13.87;91.51;101113.72;4936760;29;20024;-66
2023/08/27 05:39:03;;;;;;;16.00;4.43;;;;;;;14.06;90.87;101136.56;4936445;29;20023;-63
2023/08/27 05:41:28;;;;;;;4.20;3.47;;;;;;;13.98;90.63;101112.53;4936459;29;20024;-64
2023/08/27 05:43:54;;;;;;;4.77;3.70;;;;;;;14.07;91.36;101119.47;4919219;29;20409;-66
2023/08/27 05:46:19;;;;;;;5.50;3.50;;;;;;;14.15;91.26;101130.13;4936169;29;20054;-63
2023/08/27 05:48:45;;;;;;;4.80;3.83;;;;;;;14.03;90.73;101097.59;4936282;29;20027;-66
2023/08/27 05:51:13;;;;;;;4.13;3.50;;;;;;;14.23;90.74;101108.69;4936784;29;20056;-65
2023/08/27 05:53:39;;;;;;;5.10;4.10;;;;;;;14.42;91.19;101129.63;4936917;29;20038;-64
2023/08/27 05:56:04;;;;;;;7.50;3.93;;;;;;;14.48;89.41;101134.31;4936970;29;20534;-64
2023/08/27 05:58:30;;;;;;;3.90;3.27;;;;;;;14.58;88.58;101134.06;4919168;29;20035;-65
2023/08/27 06:00:56;;;;;;;5.47;3.33;;;;;;;14.35;88.25;101101.88;4935982;29;20027;-62
2023/08/27 06:03:22;;;;;;;3.40;2.97;;;;;;;14.64;88.48;101137.88;4935958;29;20468;-66
2023/08/27 06:05:48;;;;;;;4.00;2.87;;;;;;;14.59;88.50;101124.19;4935973;29;20028;-63
2023/08/27 06:08:13;;;;;;;5.20;3.33;;;;;;;14.80;87.63;101145.78;4916773;29;20468;-65
2023/08/27 06:10:39;;;;;;;4.27;2.77;;;;;;;14.83;87.29;101145.44;4935906;29;20027;-65
2023/08/27 06:13:04;;;;;;;4.57;3.53;;;;;;;14.87;87.93;101154.78;4936733;29;20046;-67
2023/08/27 06:15:31;;;;;;;11.67;3.37;;;;;;;14.68;87.19;101115.06;4935648;29;20047;-67
2023/08/27 06:18:02;;;;;;;6.33;3.23;;;;;;;14.91;86.74;101140.00;4918851;29;20031;-65
2023/08/27 06:20:30;;;;;;;5.70;3.30;;;;;;;14.97;86.25;101149.97;4935647;29;20048;-67
2023/08/27 06:22:57;;;;;;;10.00;6.40;;;;;;;14.94;86.92;101133.44;4935836;29;20039;-66
2023/08/27 06:25:23;;;;;;;3.70;2.90;;;;;;;15.07;86.19;101144.38;4935787;29;20095;-67
2023/08/27 06:27:49;;;;;;;4.90;3.30;;;;;;;15.04;86.88;101134.84;4935674;29;20031;-64
2023/08/27 06:30:14;;;;;;;3.50;2.93;;;;;;;15.17;87.03;101132.34;4935481;29;20040;-65
2023/08/27 06:32:40;;;;;;;3.20;2.67;;;;;;;15.24;85.58;101128.94;4935496;29;20035;-64
2023/08/27 06:35:06;;;;;;;3.23;2.93;;;;;;;15.25;84.86;101128.75;4935799;29;20047;-65
2023/08/27 06:37:31;;;;;;;3.10;2.50;;;;;;;15.37;83.63;101134.50;4935374;29;20456;-65
2023/08/27 06:39:56;;;;;;;5.00;3.23;;;;;;;15.26;84.13;101100.91;4935317;29;20378;-65
2023/08/27 06:42:22;;;;;;;4.67;3.27;;;;;;;15.41;82.78;101114.31;4935580;29;20464;-68
2023/08/27 06:44:47;;;;;;;5.03;2.67;;;;;;;15.54;83.34;101119.88;4934939;29;20444;-67
2023/08/27 06:47:13;;;;;;;3.43;2.70;;;;;;;15.26;82.91;101073.22;4935363;29;20031;-65
2023/08/27 06:49:38;;;;;;;5.73;2.80;;;;;;;15.63;82.99;101124.16;4935257;29;20039;-64
2023/08/27 06:52:04;;;;;;;4.97;3.97;;;;;;;15.69;82.67;101133.31;4926838;29;20042;-67
2023/08/27 06:54:30;;;;;;;4.87;2.87;;;;;;;15.80;81.03;101135.50;4935148;29;20058;-66
2023/08/27 06:56:55;;;;;;;4.40;2.60;;;;;;;15.85;79.75;101133.09;4935554;29;20098;-68
2023/08/27 06:59:21;;;;;;;4.07;2.63;;;;;;;15.79;79.11;101118.56;4935350;29;20039;-67
2023/08/27 07:01:46;;;;;;;3.67;2.87;;;;;;;15.99;77.87;101139.47;4935121;29;20031;-67
2023/08/27 07:04:13;;;;;;;4.83;3.53;;;;;;;15.98;77.66;101127.06;4917354;29;20131;-67
2023/08/27 07:06:39;;;;;;;3.90;2.23;;;;;;;16.09;76.69;101143.50;4935170;29;20453;-64
2023/08/27 07:09:05;;;;;;;2.97;2.43;;;;;;;16.07;74.72;101137.50;4917778;29;20033;-66
2023/08/27 07:11:31;;;;;;;2.17;1.80;;;;;;;16.02;72.87;101109.53;4934863;29;20500;-64
2023/08/27 07:13:57;;;;;;;5.57;2.20;;;;;;;16.08;72.13;101112.28;4935063;29;20028;-67
2023/08/27 07:16:22;;;;;;;7.93;2.77;;;;;;;16.25;72.37;101128.19;4935005;29;20028;-66
2023/08/27 07:18:48;;;;;;;2.77;2.30;;;;;;;16.27;70.38;101126.97;4934993;29;20071;-68
2023/08/27 07:21:13;;;;;;;6.93;3.47;;;;;;;16.22;70.90;101107.91;4917680;29;20027;-65
2023/08/27 07:23:39;;;;;;;3.80;2.47;;;;;;;16.21;71.10;101087.44;4934685;29;20063;-65
2023/08/27 07:26:05;;;;;;;3.83;2.43;;;;;;;16.40;71.01;101124.41;4914366;29;20032;-67
2023/08/27 07:28:32;;;;;;;2.80;2.47;;;;;;;16.35;65.13;101101.81;4931897;29;20060;-66
2023/08/27 07:30:58;;;;;;;2.50;2.30;;;;;;;16.51;64.45;101117.72;4935277;29;20506;-64
2023/08/27 07:33:27;;;;;;;3.37;3.03;;;;;;;16.55;64.71;101123.53;4935308;29;20051;-66
2023/08/27 07:35:52;;;;;;;3.13;2.65;;;;;;;16.47;65.56;101105.66;4935319;29;20043;-66
2023/08/27 07:38:18;;;;;;;4.80;3.10;;;;;;;16.60;65.87;101121.09;4935554;29;20166;-64
2023/08/27 07:40:43;;;;;;;3.93;2.13;;;;;;;16.64;66.74;101123.19;4935408;29;20071;-68
2023/08/27 07:43:09;;;;;;;2.63;2.43;;;;;;;16.65;62.46;101122.16;4935756;29;20372;-67
2023/08/27 07:45:34;;;;;;;4.07;2.10;;;;;;;16.75;62.39;101124.53;4935176;29;20032;-65
2023/08/27 07:48:00;;;;;;;3.93;2.13;;;;;;;16.75;60.73;101113.78;4935129;29;20445;-68
2023/08/27 07:50:26;;;;;;;3.00;2.70;;;;;;;16.93;60.50;101124.91;4934876;29;20424;-68
2023/08/27 07:53:00;;;;;;;3.10;2.50;;;;;;;16.90;58.76;101114.53;4934755;29;20416;-71
2023/08/27 07:55:31;;;;;;;4.90;2.10;;;;;;;17.02;57.71;101126.41;4934857;29;20059;-68
2023/08/27 07:57:56;;;;;;;4.57;2.40;;;;;;;17.07;57.38;101117.78;4935069;29;20034;-67
2023/08/27 08:00:22;;;;;;;2.30;2.10;;;;;;;17.03;53.61;101111.94;4934572;29;20040;-66
2023/08/27 08:02:47;;;;;;;2.77;2.30;;;;;;;17.12;54.60;101118.03;4934591;29;20115;-66
2023/08/27 08:05:13;;;;;;;3.43;2.27;;;;;;;17.18;54.83;101117.22;4934460;29;20090;-67
2023/08/27 08:07:38;;;;;;;3.27;2.57;;;;;;;17.27;53.56;101128.66;4934482;29;20097;-67
2023/08/27 08:10:04;;;;;;;3.90;3.03;;;;;;;17.27;51.51;101117.91;4934563;29;20126;-69
2023/08/27 08:12:30;;;;;;;3.00;1.95;;;;;;;16.81;50.33;101032.34;4933702;29;20028;-66
2023/08/27 08:14:55;;;;;;;2.42;2.22;;;;;;;17.33;51.41;101107.16;4923680;29;20032;-65
2023/08/27 08:17:21;;;;;;;4.68;3.03;;;;;;;17.44;51.54;101110.34;4912156;29;20082;-66
2023/08/27 08:19:46;;;;;;;3.00;1.67;;;;;;;17.44;51.01;101095.03;4909565;29;20079;-67
2023/08/27 08:22:12;;;;;;;2.60;2.40;;;;;;;17.46;51.38;101103.72;4921551;29;20032;-66
2023/08/27 08:24:37;;;;;;;3.17;2.10;;;;;;;17.48;52.05;101088.19;4901826;29;20538;-65
2023/08/27 08:27:03;;;;;;;2.60;2.40;;;;;;;17.64;51.70;101106.72;4918734;29;20034;-66
2023/08/27 08:29:32;;;;;;;3.03;2.40;;;;;;;17.55;52.96;101093.59;4918839;29;20075;-64
2023/08/27 08:31:58;;;;;;;4.20;2.47;;;;;;;17.53;52.20;101095.69;4902134;29;20095;-64
2023/08/27 08:34:27;;;;;;;3.25;2.40;;;;;;;17.54;51.24;101092.78;4918745;29;20024;-63
2023/08/27 08:36:52;;;;;;;2.90;2.20;;;;;;;17.64;50.81;101098.66;4902048;29;20079;-66
2023/08/27 08:39:18;;;;;;;3.33;2.08;;;;;;;17.69;51.77;101099.94;4918350;29;20060;-70
2023/08/27 08:41:50;;;;;;;2.25;2.05;;;;;;;17.77;51.64;101110.53;4918988;29;20024;-66
2023/08/27 08:44:52;;;;;;;2.47;2.28;;;;;;;17.79;51.71;101100.38;4918901;29;20046;-70
2023/08/27 08:47:19;;;;;;;2.97;2.38;;;;;;;17.88;53.21;101104.53;4854947;29;20050;-69
2023/08/27 08:49:46;;;;;;;2.58;2.38;;;;;;;17.97;51.78;101094.44;4901620;29;20024;-68
2023/08/27 08:52:18;;;;;;;2.95;2.50;;;;;;;18.01;52.25;101101.91;4918302;29;20409;-69
2023/08/27 08:54:51;;;;;;;3.95;2.38;;;;;;;17.86;52.04;101067.03;4918444;29;20028;-68
2023/08/27 08:57:17;;;;;;;3.22;2.20;;;;;;;18.05;52.33;101089.69;4901517;29;20055;-70
2023/08/27 08:59:44;;;;;;;4.18;2.38;;;;;;;18.02;51.84;101082.00;4901572;29;20059;-69
2023/08/27 09:02:11;;;;;;;6.88;2.75;;;;;;;18.08;52.44;101088.44;4901423;29;20133;-70
2023/08/27 09:04:37;;;;;;;3.25;2.85;;;;;;;18.20;53.71;101084.94;4918364;29;20118;-67
2023/08/27 09:07:04;;;;;;;2.90;2.33;;;;;;;18.26;53.01;101102.19;4918372;29;20116;-66
2023/08/27 09:09:31;;;;;;;3.47;2.47;;;;;;;18.28;52.93;101089.31;4918348;29;20361;-64
2023/08/27 09:12:01;;;;;;;3.33;2.50;;;;;;;18.29;52.45;101084.75;4918212;29;20035;-66
2023/08/27 09:14:29;;;;;;;3.65;2.50;;;;;;;18.17;52.99;101063.78;4917826;29;20043;-66
2023/08/27 09:16:55;;;;;;;2.40;2.20;;;;;;;18.35;52.96;101090.16;4918117;29;20032;-68
2023/08/27 09:19:20;;;;;;;3.40;2.40;;;;;;;18.27;52.15;101066.09;4918008;29;20124;-69
2023/08/27 09:21:46;;;;;;;2.65;2.17;;;;;;;18.35;53.41;101073.16;4901492;29;20385;-66
2023/08/27 09:24:11;;;;;;;2.90;2.30;;;;;;;18.48;53.85;101089.31;4917904;29;20099;-69
2023/08/27 09:26:38;;;;;;;3.33;2.50;;;;;;;18.48;53.21;101079.38;4917041;29;20028;-66
2023/08/27 09:29:08;;;;;;;4.65;2.38;;;;;;;18.53;53.36;101076.91;4907980;29;20055;-68
2023/08/27 09:31:39;;;;;;;5.32;3.00;;;;;;;18.50;52.34;101076.47;4917696;29;20068;-66
2023/08/27 09:34:05;;;;;;;2.45;2.00;;;;;;;18.56;52.38;101081.88;4918059;29;20051;-67
2023/08/27 09:36:36;;;;;;;2.60;2.40;;;;;;;18.68;51.30;101090.19;4916803;29;20449;-67
2023/08/27 09:39:12;;;;;;;4.05;2.53;;;;;;;18.68;52.44;101076.72;4917647;29;20044;-64
2023/08/27 09:41:42;;;;;;;2.88;2.10;;;;;;;18.77;51.98;101083.56;4916338;29;20380;-65
2023/08/27 09:44:08;;;;;;;4.45;3.42;;;;;;;18.86;52.12;101089.59;4917690;29;20380;-65
2023/08/27 09:46:37;;;;;;;2.67;2.28;;;;;;;18.76;51.73;101056.78;4916519;29;20127;-65
2023/08/27 09:49:05;;;;;;;2.58;2.15;;;;;;;18.91;51.24;101088.94;4918158;29;20028;-64
2023/08/27 09:51:36;;;;;;;2.88;2.53;;;;;;;18.84;52.40;101062.81;4918018;29;20036;-65
2023/08/27 09:54:13;;;;;;;2.17;1.98;;;;;;;18.94;51.28;101072.34;4918181;29;20103;-64
2023/08/27 09:56:39;;;;;;;3.08;2.38;;;;;;;18.61;52.27;101023.78;4922748;29;20563;-65
2023/08/27 09:59:07;;;;;;;2.25;1.90;;;;;;;18.85;52.73;101064.47;4919637;29;20075;-65
2023/08/27 10:01:34;;;;;;;3.10;1.80;;;;;;;18.77;53.06;101043.06;4917354;29;20476;-64
2023/08/27 10:04:07;;;;;;;3.65;2.40;;;;;;;18.96;54.82;101064.84;4916049;29;20079;-64
2023/08/27 10:06:39;;;;;;;4.88;3.35;;;;;;;18.96;53.79;101057.59;4917166;29;20131;-64
2023/08/27 10:09:05;;;;;;;1.63;1.52;;;;;;;18.93;52.23;101065.28;4918143;29;20167;-64
2023/08/27 10:11:34;;;;;;;2.92;2.25;;;;;;;18.82;52.09;101051.41;4916092;29;20118;-65
2023/08/27 10:14:00;;;;;;;3.08;2.22;;;;;;;18.93;51.94;101070.69;4917156;29;20036;-63
2023/08/27 10:16:28;;;;;;;4.72;3.83;;;;;;;19.00;52.60;101076.88;4916930;29;20028;-65
2023/08/27 10:18:54;;;;;;;4.80;2.47;;;;;;;19.01;52.67;101063.19;4916937;29;20036;-66
2023/08/27 10:21:20;;;;;;;5.05;2.55;;;;;;;19.16;52.73;101081.84;4915753;29;20028;-67
2023/08/27 10:23:46;;;;;;;4.45;2.70;;;;;;;19.31;52.46;101081.59;4917463;29;20028;-66
2023/08/27 10:26:14;;;;;;;2.75;2.17;;;;;;;19.48;52.17;101075.53;4918070;29;20032;-65
2023/08/27 10:28:40;;;;;;;3.28;1.88;;;;;;;19.67;50.61;101071.13;4918655;29;20055;-66
2023/08/27 10:31:07;;;;;;;2.92;1.90;;;;;;;19.70;51.06;101051.78;4918852;29;20104;-64
2023/08/27 10:33:33;;;;;;;2.60;2.10;;;;;;;19.82;50.17;101043.81;4901162;29;20184;-66
2023/08/27 10:36:09;;;;;;;2.58;2.38;;;;;;;20.10;50.25;101068.59;4917616;29;20123;-66
2023/08/27 10:38:38;;;;;;;2.80;2.25;;;;;;;20.18;50.56;101063.97;4917748;29;20051;-65
2023/08/27 10:41:05;;;;;;;2.90;2.33;;;;;;;20.28;50.19;101053.50;4917996;29;20036;-65
2023/08/27 10:43:36;;;;;;;3.17;1.98;;;;;;;20.49;50.03;101063.97;4902076;29;20087;-65
2023/08/27 10:46:14;;;;;;;5.00;2.22;;;;;;;20.56;49.10;101061.22;4919313;29;20492;-64
2023/08/27 10:48:40;;;;;;;3.03;1.95;;;;;;;20.57;48.25;101063.72;4920128;29;20087;-65
2023/08/27 10:51:12;;;;;;;2.15;1.80;;;;;;;20.52;48.61;101060.81;4921997;29;20028;-65
2023/08/27 10:53:39;;;;;;;4.03;1.98;;;;;;;20.41;49.04;101042.59;4922144;29;20119;-65
2023/08/27 10:56:26;;;;;;;5.10;1.95;;;;;;;20.52;48.58;101055.41;4918879;29;20496;-66
2023/08/27 10:58:52;;;;;;;2.80;2.33;;;;;;;20.64;47.82;101060.94;4917368;29;20043;-65
2023/08/27 11:01:29;;;;;;;3.17;2.28;;;;;;;20.57;48.73;101043.94;4917144;29;20024;-67
2023/08/27 11:04:04;;;;;;;2.95;2.05;;;;;;;20.78;48.06;101059.75;4917132;29;20038;-66
2023/08/27 11:06:38;;;;;;;4.25;2.50;;;;;;;20.26;48.77;100958.25;4916838;29;20040;-65
2023/08/27 11:09:27;;;;;;;2.65;1.88;;;;;;;20.92;47.69;101061.31;4916618;29;20038;-65
2023/08/27 11:11:55;;;;;;;2.33;1.73;;;;;;;20.88;47.10;101043.03;4918378;29;20165;-63
2023/08/27 11:14:22;;;;;;;3.70;2.15;;;;;;;21.04;47.83;101053.25;4918829;29;20036;-66
2023/08/27 11:16:58;;;;;;;2.40;1.75;;;;;;;21.09;48.06;101041.75;4917835;29;20050;-63
2023/08/27 11:19:29;;;;;;;2.67;2.08;;;;;;;21.06;46.23;101034.91;4917839;29;20036;-67
2023/08/27 11:22:11;;;;;;;4.90;1.77;;;;;;;20.93;47.84;101044.00;4919804;29;20028;-64